Time;durP1;ratioP1;P1;durP2;ratioP2;P2;SDS_P1;SDS_P2;PMS_P1;PMS_P2;Temp;Humidity;BMP_temperature;BMP_pressure;BME280_temperature;BME280_humidity;BME280_pressure;Samples;Min_cycle;Max_cycle;Signal;HPM_P1;HPM_P2
2023/04/20 00:01:42;;;;;;;22.05;13.55;;;7.00;99.90;;;;;;5144906;27;20185;-79
2023/04/20 00:04:09;;;;;;;20.95;14.63;;;7.00;99.90;;;;;;5149089;27;20197;-78
2023/04/20 00:06:36;;;;;;;15.95;13.75;;;7.00;99.90;;;;;;5158273;27;20192;-78
2023/04/20 00:09:03;;;;;;;21.13;14.35;;;7.00;99.90;;;;;;5151859;27;20226;-79
2023/04/20 00:11:30;;;;;;;16.63;13.73;;;7.00;99.90;;;;;;5159260;27;20243;-79
2023/04/20 00:13:57;;;;;;;14.05;12.55;;;7.00;99.90;;;;;;5154455;27;20186;-79
2023/04/20 00:16:25;;;;;;;21.13;15.75;;;6.90;99.90;;;;;;5141089;27;20189;-81
2023/04/20 00:18:51;;;;;;;15.30;13.20;;;7.10;99.90;;;;;;5150644;27;20214;-80
2023/04/20 00:21:22;;;;;;;17.42;13.60;;;7.10;99.90;;;;;;5153844;27;20205;-80
2023/04/20 00:23:50;;;;;;;17.60;13.70;;;7.10;99.90;;;;;;5149367;27;20197;-80
2023/04/20 00:26:17;;;;;;;19.35;13.88;;;7.10;99.90;;;;;;5150796;27;20204;-81
2023/04/20 00:28:44;;;;;;;20.10;14.18;;;7.20;99.90;;;;;;5146623;27;20254;-80
2023/04/20 00:31:11;;;;;;;18.70;13.10;;;7.30;99.90;;;;;;5146761;27;20424;-80
2023/04/20 00:33:39;;;;;;;18.95;15.10;;;7.40;99.90;;;;;;5130519;27;20401;-81
2023/04/20 00:36:06;;;;;;;18.85;14.40;;;7.20;99.90;;;;;;5138314;27;20220;-80
2023/04/20 00:38:33;;;;;;;15.27;13.77;;;7.10;99.90;;;;;;5135774;27;20687;-80
2023/04/20 00:41:00;;;;;;;18.17;13.43;;;7.10;99.90;;;;;;5130005;27;20216;-80
2023/04/20 00:43:30;;;;;;;20.17;15.82;;;6.90;99.90;;;;;;5134021;27;20241;-80
2023/04/20 00:45:57;;;;;;;15.30;13.80;;;7.00;99.90;;;;;;5125953;27;20206;-80
2023/04/20 00:48:24;;;;;;;20.67;14.75;;;6.70;99.90;;;;;;5133362;27;20508;-80
2023/04/20 00:50:54;;;;;;;16.55;14.85;;;6.50;99.90;;;;;;5130979;27;20232;-81
2023/04/20 00:53:21;;;;;;;18.60;14.85;;;6.30;99.90;;;;;;5133502;27;20205;-81
2023/04/20 00:55:49;;;;;;;21.42;16.52;;;6.40;99.90;;;;;;5120621;27;20205;-79
2023/04/20 00:58:16;;;;;;;16.55;14.23;;;6.30;99.90;;;;;;5129109;27;20427;-79
2023/04/20 01:00:43;;;;;;;20.88;15.45;;;6.40;99.90;;;;;;5125841;27;20401;-81
2023/04/20 01:03:10;;;;;;;18.02;15.10;;;6.40;99.90;;;;;;5124921;27;20209;-79
2023/04/20 01:05:37;;;;;;;17.63;15.82;;;6.40;99.90;;;;;;5129041;27;20545;-79
2023/04/20 01:08:05;;;;;;;19.65;14.05;;;6.60;99.90;;;;;;5137373;27;20205;-80
2023/04/20 01:10:32;;;;;;;21.30;14.90;;;6.70;99.90;;;;;;5123825;27;20236;-79
2023/04/20 01:12:59;;;;;;;17.70;13.95;;;6.60;99.90;;;;;;5118588;27;20498;-80
2023/04/20 01:15:27;;;;;;;16.95;13.93;;;6.50;99.90;;;;;;5125418;27;20395;-81
2023/04/20 01:17:54;;;;;;;16.52;14.60;;;6.40;99.90;;;;;;5126030;27;20263;-79
2023/04/20 01:20:22;;;;;;;24.55;16.23;;;6.20;99.90;;;;;;5128801;27;20285;-78
2023/04/20 01:22:52;;;;;;;19.50;16.52;;;6.20;99.90;;;;;;5135666;27;20201;-83
2023/04/20 01:25:20;;;;;;;19.02;15.80;;;6.20;99.90;;;;;;5121749;27;20205;-81
2023/04/20 01:27:47;;;;;;;19.52;16.77;;;6.10;99.90;;;;;;5119003;27;20213;-81
2023/04/20 01:30:14;;;;;;;20.92;16.33;;;6.10;99.90;;;;;;5125177;27;20244;-81
2023/04/20 01:32:41;;;;;;;19.58;16.95;;;6.00;99.90;;;;;;5135726;27;20265;-81
2023/04/20 01:35:09;;;;;;;20.80;16.75;;;6.10;99.90;;;;;;5135860;27;20704;-81
2023/04/20 01:37:41;;;;;;;22.15;18.10;;;6.20;99.90;;;;;;5129559;27;20193;-81
2023/04/20 01:40:09;;;;;;;21.58;17.30;;;6.20;99.90;;;;;;5117836;27;20217;-80
2023/04/20 01:42:37;;;;;;;20.70;18.38;;;6.20;99.90;;;;;;5121457;27;20277;-80
2023/04/20 01:45:07;;;;;;;22.50;17.48;;;6.10;99.90;;;;;;5125950;27;20267;-81
2023/04/20 01:47:35;;;;;;;19.55;17.50;;;6.20;99.90;;;;;;5134147;27;20205;-81
2023/04/20 01:50:04;;;;;;;21.15;16.65;;;6.20;99.90;;;;;;5138630;27;20269;-81
2023/04/20 01:52:31;;;;;;;24.13;16.90;;;6.20;99.90;;;;;;5132154;27;20247;-81
2023/04/20 01:54:59;;;;;;;19.30;17.27;;;6.20;99.90;;;;;;5125527;27;20193;-81
2023/04/20 01:57:25;;;;;;;22.17;18.08;;;6.10;99.90;;;;;;5128847;28;20204;-81
2023/04/20 01:59:53;;;;;;;20.63;17.13;;;6.20;99.90;;;;;;5125524;28;20257;-81
2023/04/20 02:02:22;;;;;;;22.08;17.77;;;6.20;99.90;;;;;;5122050;28;20193;-80
2023/04/20 02:04:49;;;;;;;23.02;16.88;;;6.10;99.90;;;;;;5127557;28;20207;-80
2023/04/20 02:07:16;;;;;;;27.20;18.52;;;6.20;99.90;;;;;;5126733;28;20203;-80
2023/04/20 02:09:43;;;;;;;21.55;17.60;;;6.20;99.90;;;;;;5107558;28;20262;-80
2023/04/20 02:12:13;;;;;;;22.38;17.52;;;6.10;99.90;;;;;;5132907;28;20199;-80
2023/04/20 02:14:40;;;;;;;20.13;15.88;;;6.10;99.90;;;;;;5120784;28;20242;-79
2023/04/20 02:17:07;;;;;;;25.75;17.23;;;6.20;99.90;;;;;;5125823;28;20208;-80
2023/04/20 02:19:35;;;;;;;23.58;17.95;;;6.20;99.90;;;;;;5135000;28;20209;-80
2023/04/20 02:22:02;;;;;;;20.13;16.95;;;6.10;99.90;;;;;;5126242;28;20213;-80
2023/04/20 02:24:29;;;;;;;23.92;16.38;;;6.20;99.90;;;;;;5134842;28;20212;-79
2023/04/20 02:26:57;;;;;;;21.15;16.55;;;6.10;99.90;;;;;;5137027;28;20200;-79
2023/04/20 02:29:24;;;;;;;21.10;16.00;;;6.10;99.90;;;;;;5125617;28;20246;-79
2023/04/20 02:31:53;;;;;;;20.73;15.95;;;6.10;99.90;;;;;;5128527;28;20224;-78
2023/04/20 02:34:20;;;;;;;21.42;16.73;;;6.10;99.90;;;;;;5122434;28;20197;-81
2023/04/20 02:36:47;;;;;;;23.15;18.20;;;6.00;99.90;;;;;;5128231;28;20212;-80
2023/04/20 02:39:15;;;;;;;23.90;16.35;;;6.00;99.90;;;;;;5138063;27;20208;-79
2023/04/20 02:41:42;;;;;;;20.02;16.90;;;6.00;99.90;;;;;;5112777;27;20752;-80
2023/04/20 02:44:09;;;;;;;21.55;15.75;;;6.00;99.90;;;;;;5129300;27;20255;-80
2023/04/20 02:46:36;;;;;;;22.25;16.38;;;6.10;99.90;;;;;;5129243;27;20204;-80
2023/04/20 02:49:03;;;;;;;23.60;17.90;;;6.10;99.90;;;;;;5110904;28;20206;-79
2023/04/20 02:51:31;;;;;;;21.58;16.65;;;6.20;99.90;;;;;;5137087;27;20244;-79
2023/04/20 02:53:58;;;;;;;24.30;17.05;;;6.40;99.90;;;;;;5132795;27;20211;-81
2023/04/20 02:56:25;;;;;;;26.80;17.25;;;6.30;99.90;;;;;;5135326;27;20513;-79
2023/04/20 02:58:52;;;;;;;27.15;18.00;;;6.30;99.90;;;;;;5134478;27;20201;-80
2023/04/20 03:01:19;;;;;;;21.30;17.63;;;6.30;99.90;;;;;;5137610;27;20313;-79
2023/04/20 03:03:46;;;;;;;20.58;16.55;;;6.30;99.90;;;;;;5133674;27;20449;-80
2023/04/20 03:06:13;;;;;;;23.35;16.85;;;6.40;99.90;;;;;;5128870;27;20206;-79
2023/04/20 03:08:40;;;;;;;21.75;15.93;;;6.50;99.90;;;;;;5131078;27;20200;-79
2023/04/20 03:11:07;;;;;;;20.50;17.55;;;6.60;99.90;;;;;;5138170;27;20221;-80
2023/04/20 03:13:35;;;;;;;19.67;17.52;;;6.60;99.90;;;;;;5140931;27;20201;-79
2023/04/20 03:16:04;;;;;;;20.70;15.68;;;6.60;99.90;;;;;;5129081;27;20209;-80
2023/04/20 03:18:31;;;;;;;21.42;17.20;;;6.50;99.90;;;;;;5130574;27;20205;-80
2023/04/20 03:20:58;;;;;;;23.45;16.90;;;6.50;99.90;;;;;;5124092;27;20205;-79
2023/04/20 03:23:25;;;;;;;19.63;16.42;;;6.50;99.90;;;;;;5133705;27;20216;-80
2023/04/20 03:25:52;;;;;;;25.67;17.10;;;6.70;99.90;;;;;;5138429;27;20193;-80
2023/04/20 03:28:19;;;;;;;17.65;15.38;;;6.80;99.90;;;;;;5142941;27;20216;-79
2023/04/20 03:30:46;;;;;;;21.65;17.05;;;6.60;99.90;;;;;;5135048;27;20607;-80
2023/04/20 03:33:13;;;;;;;23.75;17.30;;;6.60;99.90;;;;;;5131631;27;20564;-80
2023/04/20 03:35:41;;;;;;;19.83;17.40;;;6.60;99.90;;;;;;5129081;27;20263;-80
2023/04/20 03:38:08;;;;;;;20.75;15.68;;;6.80;99.90;;;;;;5133314;27;20205;-80
2023/04/20 03:40:35;;;;;;;21.58;17.52;;;6.80;99.90;;;;;;5128838;27;20205;-80
2023/04/20 03:43:02;;;;;;;18.58;16.45;;;6.80;99.90;;;;;;5139940;27;20200;-81
2023/04/20 03:45:29;;;;;;;21.13;16.92;;;6.50;99.90;;;;;;5132390;27;20205;-81
2023/04/20 03:47:57;;;;;;;23.63;17.60;;;6.60;99.90;;;;;;5112532;27;20201;-80
2023/04/20 03:50:24;;;;;;;28.15;21.30;;;6.60;99.90;;;;;;5138053;27;20228;-80
2023/04/20 03:52:52;;;;;;;25.40;19.17;;;6.60;99.90;;;;;;5133339;27;20422;-79
2023/04/20 03:55:19;;;;;;;24.98;18.98;;;6.60;99.90;;;;;;5133770;27;20212;-79
2023/04/20 03:57:46;;;;;;;21.02;16.42;;;6.70;99.90;;;;;;5125344;27;20207;-80
2023/04/20 04:00:14;;;;;;;18.90;16.90;;;6.90;99.90;;;;;;5127891;27;20213;-79
2023/04/20 04:02:41;;;;;;;23.05;17.88;;;6.80;99.90;;;;;;5139696;27;20205;-79
2023/04/20 04:05:08;;;;;;;20.85;17.13;;;7.00;99.90;;;;;;5140297;27;20415;-80
2023/04/20 04:07:35;;;;;;;19.88;16.30;;;7.10;99.90;;;;;;5133836;27;20518;-80
2023/04/20 04:10:03;;;;;;;22.90;18.00;;;7.00;99.90;;;;;;5123088;27;20211;-80
2023/04/20 04:12:31;;;;;;;21.65;15.98;;;7.00;99.90;;;;;;5138285;27;20239;-80
2023/04/20 04:14:57;;;;;;;22.17;16.63;;;7.10;99.90;;;;;;5123927;27;20563;-79
2023/04/20 04:17:24;;;;;;;20.27;15.63;;;7.30;99.90;;;;;;5137871;27;20205;-80
2023/04/20 04:19:52;;;;;;;31.58;19.20;;;7.30;99.90;;;;;;5119937;27;20217;-80
2023/04/20 04:22:19;;;;;;;19.90;17.58;;;7.10;99.90;;;;;;5118963;28;20210;-81
2023/04/20 04:24:46;;;;;;;22.10;18.67;;;7.00;99.90;;;;;;5109272;27;20197;-81
2023/04/20 04:27:14;;;;;;;27.70;19.73;;;7.10;99.90;;;;;;5122249;27;20238;-81
2023/04/20 04:29:41;;;;;;;25.88;17.83;;;7.30;99.90;;;;;;5129419;27;20210;-80
2023/04/20 04:32:08;;;;;;;20.23;15.07;;;7.50;99.90;;;;;;5130614;27;20233;-79
2023/04/20 04:34:36;;;;;;;20.83;16.48;;;7.50;99.90;;;;;;5150560;27;20215;-79
2023/04/20 04:37:03;;;;;;;23.48;18.58;;;7.40;99.90;;;;;;5132642;27;20247;-80
2023/04/20 04:39:30;;;;;;;26.63;18.35;;;7.20;99.90;;;;;;5145063;27;20194;-80
2023/04/20 04:41:59;;;;;;;26.88;15.43;;;7.10;99.90;;;;;;5130564;27;20202;-80
2023/04/20 04:44:30;;;;;;;21.70;18.00;;;7.00;99.90;;;;;;5139272;27;20586;-81
2023/04/20 04:46:57;;;;;;;21.33;16.55;;;7.00;99.90;;;;;;5105711;27;20257;-81
2023/04/20 04:49:25;;;;;;;20.20;17.67;;;7.20;99.90;;;;;;5111723;28;20201;-80
2023/04/20 04:51:52;;;;;;;22.25;17.42;;;7.30;99.90;;;;;;5127079;27;20220;-80
2023/04/20 04:54:19;;;;;;;25.27;19.42;;;7.30;99.90;;;;;;5126389;27;20217;-81
2023/04/20 04:56:46;;;;;;;23.00;17.50;;;7.30;99.90;;;;;;5131763;27;20229;-82
2023/04/20 04:59:12;;;;;;;24.52;19.95;;;7.30;99.90;;;;;;5101205;28;20246;-81
2023/04/20 05:01:40;;;;;;;33.80;19.25;;;7.30;99.90;;;;;;5133708;27;20201;-81
2023/04/20 05:04:06;;;;;;;24.20;18.38;;;7.30;99.90;;;;;;5138773;27;20399;-81
2023/04/20 05:06:37;;;;;;;22.67;16.98;;;7.50;99.90;;;;;;5119139;27;20205;-81
2023/04/20 05:09:07;;;;;;;25.55;16.67;;;7.90;99.90;;;;;;5134881;27;20225;-82
2023/04/20 05:11:33;;;;;;;20.38;17.30;;;7.80;99.90;;;;;;5127755;27;20234;-82
2023/04/20 05:14:02;;;;;;;24.30;17.27;;;7.90;99.90;;;;;;5129126;27;20232;-81
2023/04/20 05:16:29;;;;;;;20.48;16.70;;;8.10;99.90;;;;;;5107675;28;20205;-80
2023/04/20 05:18:56;;;;;;;28.63;19.27;;;8.20;99.90;;;;;;5129376;27;20522;-81
2023/04/20 05:21:23;;;;;;;23.85;19.70;;;8.30;99.90;;;;;;5125718;27;20213;-82
2023/04/20 05:23:52;;;;;;;23.80;18.55;;;8.30;99.90;;;;;;5115036;27;20202;-80
2023/04/20 05:26:19;;;;;;;23.85;17.33;;;7.90;99.90;;;;;;5121377;27;20261;-80
2023/04/20 05:28:46;;;;;;;23.02;20.17;;;8.00;99.90;;;;;;5131439;27;20213;-80
2023/04/20 05:31:13;;;;;;;25.70;19.08;;;8.20;99.90;;;;;;5131961;27;20229;-79
2023/04/20 05:33:40;;;;;;;30.90;21.05;;;8.40;99.90;;;;;;5130319;27;20234;-80
2023/04/20 05:36:08;;;;;;;25.35;19.00;;;8.40;99.90;;;;;;5138201;27;20209;-80
2023/04/20 05:38:35;;;;;;;28.48;21.08;;;8.30;99.90;;;;;;5126099;27;20206;-80
2023/04/20 05:41:01;;;;;;;31.48;23.25;;;8.20;99.90;;;;;;5133065;27;20205;-80
2023/04/20 05:43:34;;;;;;;30.00;19.98;;;8.00;99.90;;;;;;5126843;27;20205;-80
2023/04/20 05:46:00;;;;;;;29.50;19.83;;;7.80;99.90;;;;;;5124977;28;20208;-80
2023/04/20 05:48:27;;;;;;;32.10;20.77;;;7.90;99.90;;;;;;5133642;27;20202;-80
2023/04/20 05:50:56;;;;;;;25.60;20.63;;;7.70;99.90;;;;;;5105419;28;20229;-81
2023/04/20 05:53:23;;;;;;;27.27;22.00;;;7.60;99.90;;;;;;5124214;28;20213;-81
2023/04/20 05:55:49;;;;;;;31.35;22.83;;;7.50;99.90;;;;;;5127302;27;20205;-81
2023/04/20 05:58:18;;;;;;;27.27;21.25;;;7.40;99.90;;;;;;5131763;27;20262;-80
2023/04/20 06:00:45;;;;;;;29.42;22.15;;;7.60;99.90;;;;;;5113922;28;20496;-81
2023/04/20 06:03:14;;;;;;;29.67;22.13;;;7.70;99.90;;;;;;5130303;28;20746;-81
2023/04/20 06:05:41;;;;;;;27.67;21.17;;;7.90;99.90;;;;;;5119536;28;20227;-80
2023/04/20 06:08:08;;;;;;;27.75;22.55;;;7.70;99.90;;;;;;5124035;28;20197;-80
2023/04/20 06:10:35;;;;;;;29.83;21.88;;;7.60;99.90;;;;;;5125826;28;20399;-80
2023/04/20 06:13:03;;;;;;;30.02;23.70;;;7.70;99.90;;;;;;5122418;27;20274;-81
2023/04/20 06:15:30;;;;;;;28.65;21.30;;;7.80;99.90;;;;;;5115140;27;20201;-80
2023/04/20 06:17:58;;;;;;;29.13;22.17;;;7.90;99.90;;;;;;5138279;27;20254;-80
2023/04/20 06:20:25;;;;;;;30.58;23.25;;;7.80;99.90;;;;;;5126335;27;20691;-81
2023/04/20 06:22:54;;;;;;;28.98;22.65;;;7.80;99.90;;;;;;5132500;27;20339;-80
2023/04/20 06:25:22;;;;;;;33.10;24.30;;;7.70;99.90;;;;;;5119426;27;20213;-80
2023/04/20 06:27:50;;;;;;;33.22;23.63;;;7.70;99.90;;;;;;5115467;27;20209;-80
2023/04/20 06:30:18;;;;;;;26.92;22.40;;;7.70;99.90;;;;;;5124619;27;20212;-82
2023/04/20 06:32:45;;;;;;;33.00;25.17;;;7.80;99.90;;;;;;5135880;27;20565;-81
2023/04/20 06:35:12;;;;;;;41.25;26.98;;;7.80;99.90;;;;;;5124148;27;20254;-81
2023/04/20 06:37:39;;;;;;;28.63;23.00;;;7.90;99.90;;;;;;5141066;27;20451;-81
2023/04/20 06:40:07;;;;;;;33.85;23.00;;;8.00;99.90;;;;;;5135148;27;20208;-81
2023/04/20 06:42:35;;;;;;;34.38;23.80;;;8.10;99.90;;;;;;5138213;27;20232;-81
2023/04/20 06:45:03;;;;;;;31.60;24.70;;;8.30;99.90;;;;;;5125798;27;20536;-81
2023/04/20 06:47:33;;;;;;;32.15;23.75;;;8.50;99.90;;;;;;5136260;27;20197;-82
2023/04/20 06:50:03;;;;;;;37.00;23.35;;;8.80;99.90;;;;;;5138147;27;20271;-82
2023/04/20 06:52:32;;;;;;;32.58;23.40;;;9.20;99.90;;;;;;5130153;27;20285;-82
2023/04/20 06:55:05;;;;;;;33.33;23.25;;;9.40;99.90;;;;;;5114361;27;20205;-82
2023/04/20 06:57:32;;;;;;;31.10;21.48;;;9.50;99.90;;;;;;5139365;27;20201;-82
2023/04/20 06:59:59;;;;;;;33.40;23.33;;;9.60;99.90;;;;;;5127663;27;20422;-82
2023/04/20 07:02:26;;;;;;;30.35;21.88;;;9.60;99.90;;;;;;5124014;27;20210;-81
2023/04/20 07:05:01;;;;;;;31.08;23.35;;;9.80;99.90;;;;;;5126996;27;20266;-82
2023/04/20 07:07:28;;;;;;;35.05;24.88;;;9.70;99.90;;;;;;5130908;27;20276;-82
2023/04/20 07:09:56;;;;;;;27.17;22.13;;;9.60;99.90;;;;;;5136799;27;20202;-82
2023/04/20 07:12:27;;;;;;;27.15;21.70;;;9.80;99.90;;;;;;5137653;27;20233;-81
2023/04/20 07:14:55;;;;;;;31.27;22.55;;;10.30;99.90;;;;;;5130681;27;20205;-81
2023/04/20 07:17:21;;;;;;;33.80;24.50;;;10.80;99.90;;;;;;5127720;27;20209;-81
2023/04/20 07:19:51;;;;;;;28.58;21.63;;;11.10;99.90;;;;;;5135911;27;20208;-81
2023/04/20 07:22:21;;;;;;;32.03;24.23;;;11.20;99.90;;;;;;5133169;27;20285;-82
2023/04/20 07:24:48;;;;;;;30.75;24.23;;;11.40;99.90;;;;;;5136175;27;20208;-81
2023/04/20 07:27:15;;;;;;;28.05;21.60;;;11.60;99.90;;;;;;5126638;27;20210;-81
2023/04/20 07:29:41;;;;;;;28.00;23.60;;;11.70;99.90;;;;;;5139704;27;20242;-81
2023/04/20 07:32:08;;;;;;;29.40;23.40;;;11.80;99.90;;;;;;5138149;27;20220;-80
2023/04/20 07:34:35;;;;;;;31.60;23.02;;;12.00;99.90;;;;;;5130611;27;20197;-82
2023/04/20 07:37:02;;;;;;;28.17;21.45;;;12.10;99.90;;;;;;5135319;27;20208;-81
2023/04/20 07:39:29;;;;;;;30.48;23.95;;;11.80;99.90;;;;;;5131606;27;20202;-83
2023/04/20 07:41:58;;;;;;;39.22;22.63;;;12.40;99.90;;;;;;5133290;27;20536;-82
2023/04/20 07:44:27;;;;;;;28.00;21.23;;;12.10;99.90;;;;;;5123918;27;20216;-84
2023/04/20 07:46:56;;;;;;;29.38;21.70;;;11.90;99.90;;;;;;5114508;28;20229;-83
2023/04/20 07:49:24;;;;;;;26.02;21.05;;;11.90;99.90;;;;;;5130975;27;20335;-82
2023/04/20 07:51:51;;;;;;;29.98;23.23;;;11.70;99.90;;;;;;5137147;27;20626;-81
2023/04/20 07:54:26;;;;;;;32.97;22.98;;;12.10;99.90;;;;;;5130523;27;20203;-82
2023/04/20 07:56:53;;;;;;;30.70;23.35;;;12.00;99.90;;;;;;5132737;27;20246;-82
2023/04/20 07:59:20;;;;;;;28.75;20.85;;;12.10;99.90;;;;;;5138715;27;20430;-82
2023/04/20 08:01:49;;;;;;;28.58;22.48;;;11.60;99.90;;;;;;5115034;27;20209;-82
2023/04/20 08:04:16;;;;;;;30.75;22.65;;;11.50;99.90;;;;;;5136826;27;20201;-83
2023/04/20 08:06:43;;;;;;;29.70;23.48;;;11.50;99.90;;;;;;5137782;27;20236;-83
2023/04/20 08:09:10;;;;;;;27.23;20.80;;;11.70;99.90;;;;;;5124604;27;20205;-82
2023/04/20 08:11:39;;;;;;;29.83;20.77;;;11.90;99.90;;;;;;5135463;27;20296;-82
2023/04/20 08:14:09;;;;;;;30.13;23.95;;;12.10;99.90;;;;;;5137694;27;20209;-82
2023/04/20 08:16:37;;;;;;;36.95;24.92;;;12.30;99.90;;;;;;5136081;27;20259;-83
2023/04/20 08:19:09;;;;;;;35.70;22.75;;;12.50;99.90;;;;;;5126721;27;20205;-81
2023/04/20 08:21:40;;;;;;;36.03;23.90;;;12.60;99.90;;;;;;5106532;27;20223;-80
2023/04/20 08:24:08;;;;;;;40.25;24.50;;;12.10;99.90;;;;;;5124685;27;20205;-81
2023/04/20 08:26:35;;;;;;;29.30;22.00;;;11.80;99.90;;;;;;5130849;27;20217;-80
2023/04/20 08:29:02;;;;;;;31.60;20.52;;;11.50;99.90;;;;;;5121138;27;20213;-83
2023/04/20 08:31:30;;;;;;;32.05;21.92;;;11.20;99.90;;;;;;5111270;27;20257;-81
2023/04/20 08:33:58;;;;;;;42.20;24.33;;;11.10;99.90;;;;;;5117317;27;20215;-84
2023/04/20 08:36:25;;;;;;;27.80;20.60;;;11.50;99.90;;;;;;5130098;27;20276;-81
2023/04/20 08:38:56;;;;;;;42.35;25.60;;;11.90;99.90;;;;;;5125767;27;20226;-81
2023/04/20 08:41:26;;;;;;;30.55;20.70;;;12.00;99.90;;;;;;5107209;27;20193;-83
2023/04/20 08:43:52;;;;;;;28.73;20.90;;;12.00;99.90;;;;;;5129197;27;20207;-81
2023/04/20 08:46:19;;;;;;;33.85;22.00;;;12.00;99.90;;;;;;5128255;27;20249;-81
2023/04/20 08:48:47;;;;;;;32.33;20.60;;;12.20;99.90;;;;;;5107574;27;20409;-82
2023/04/20 08:51:18;;;;;;;31.38;21.38;;;12.40;99.90;;;;;;5128570;27;20214;-83
2023/04/20 08:53:45;;;;;;;26.55;18.05;;;12.50;99.90;;;;;;5140706;27;20224;-81
2023/04/20 08:56:12;;;;;;;24.63;18.30;;;12.30;99.90;;;;;;5135767;27;20318;-82
2023/04/20 08:58:41;;;;;;;22.65;16.88;;;12.30;99.90;;;;;;5130377;28;20219;-80
2023/04/20 09:01:10;;;;;;;29.48;19.83;;;12.50;99.90;;;;;;5125047;28;20197;-81
2023/04/20 09:03:41;;;;;;;26.17;18.15;;;13.10;99.90;;;;;;5113289;27;20212;-80
2023/04/20 09:06:16;;;;;;;29.10;17.77;;;13.10;99.90;;;;;;5129907;27;20306;-81
2023/04/20 09:08:51;;;;;;;25.90;18.50;;;13.50;99.90;;;;;;5128851;27;20201;-81
2023/04/20 09:11:25;;;;;;;25.90;17.70;;;13.50;99.90;;;;;;5127114;27;20272;-81
2023/04/20 09:14:05;;;;;;;24.65;17.92;;;13.40;99.90;;;;;;5132826;27;20571;-82
2023/04/20 09:16:38;;;;;;;21.13;15.95;;;13.10;99.90;;;;;;5126223;27;20202;-81
2023/04/20 09:19:06;;;;;;;29.15;18.73;;;12.90;99.90;;;;;;5126696;27;20201;-82
2023/04/20 09:21:35;;;;;;;22.90;18.60;;;13.10;99.90;;;;;;5126283;27;20209;-82
2023/04/20 09:24:07;;;;;;;24.75;18.15;;;13.20;99.90;;;;;;5125700;27;20254;-80
2023/04/20 09:26:35;;;;;;;27.33;19.60;;;13.20;99.90;;;;;;5134126;27;20209;-82
2023/04/20 09:29:03;;;;;;;25.52;18.10;;;13.20;99.90;;;;;;5132381;27;20213;-83
2023/04/20 09:31:29;;;;;;;25.75;18.20;;;13.00;99.90;;;;;;5129095;27;20209;-79
2023/04/20 09:34:03;;;;;;;23.40;16.80;;;13.00;99.90;;;;;;5131826;27;20229;-81
2023/04/20 09:36:38;;;;;;;25.92;19.63;;;13.60;99.90;;;;;;5131228;27;20411;-82
2023/04/20 09:39:11;;;;;;;25.60;18.00;;;14.00;99.90;;;;;;5125416;27;20200;-82
2023/04/20 09:41:39;;;;;;;26.35;19.20;;;13.60;99.90;;;;;;5134579;27;20469;-82
2023/04/20 09:44:11;;;;;;;24.88;18.77;;;13.20;99.90;;;;;;5126327;27;20209;-80
2023/04/20 09:46:40;;;;;;;28.05;18.00;;;13.70;99.90;;;;;;5119414;27;20352;-79
2023/04/20 09:49:08;;;;;;;24.77;19.92;;;14.10;99.90;;;;;;5135408;27;20249;-80
2023/04/20 09:51:46;;;;;;;29.63;18.33;;;14.80;99.90;;;;;;5125372;27;20201;-81
2023/04/20 09:54:16;;;;;;;23.55;17.23;;;14.40;99.90;;;;;;5127214;27;20216;-80
2023/04/20 09:56:44;;;;;;;24.90;16.73;;;14.50;99.90;;;;;;5126546;27;20200;-80
2023/04/20 09:59:12;;;;;;;26.70;19.02;;;14.90;99.90;;;;;;5137766;27;20204;-80
2023/04/20 10:01:39;;;;;;;26.83;18.70;;;14.90;99.90;;;;;;5123160;28;20201;-80
2023/04/20 10:04:09;;;;;;;25.80;17.17;;;14.90;99.90;;;;;;5130274;28;20245;-80
2023/04/20 10:06:50;;;;;;;26.95;18.48;;;15.50;99.90;;;;;;5121582;28;20445;-79
2023/04/20 10:09:23;;;;;;;27.70;19.90;;;16.10;99.90;;;;;;5118811;28;20266;-79
2023/04/20 10:11:50;;;;;;;26.43;19.53;;;16.50;99.90;;;;;;5125541;28;20453;-80
2023/04/20 10:14:25;;;;;;;20.47;18.27;;;16.50;99.90;;;;;;5124841;28;20486;-80
2023/04/20 10:17:04;;;;;;;19.63;16.27;;;15.50;99.90;;;;;;5135509;28;20436;-80
2023/04/20 10:19:43;;;;;;;18.20;14.90;;;15.90;99.90;;;;;;5121437;28;20437;-79
2023/04/20 10:22:32;;;;;;;22.80;17.00;;;15.60;99.90;;;;;;5129035;28;20452;-79
2023/04/20 10:25:19;;;;;;;23.13;16.37;;;16.50;99.90;;;;;;5134189;28;20442;-79
2023/04/20 10:27:58;;;;;;;18.00;14.83;;;17.00;99.90;;;;;;5127238;28;20452;-78
2023/04/20 10:30:27;;;;;;;25.70;17.00;;;17.50;99.90;;;;;;5129883;28;20445;-81
2023/04/20 10:33:10;;;;;;;29.10;18.20;;;17.30;99.90;;;;;;5125415;28;20464;-80
2023/04/20 10:35:51;;;;;;;22.40;17.50;;;16.60;99.90;;;;;;5123881;28;20411;-80
2023/04/20 10:38:29;;;;;;;23.40;17.33;;;16.70;99.90;;;;;;5137186;28;20649;-79
2023/04/20 10:41:12;;;;;;;21.57;17.73;;;16.90;99.90;;;;;;5118570;28;20479;-80
2023/04/20 10:43:41;;;;;;;25.57;18.60;;;17.10;99.90;;;;;;5128977;28;20562;-79
2023/04/20 10:46:15;;;;;;;20.63;16.53;;;17.40;99.90;;;;;;5136878;28;20429;-79
2023/04/20 10:48:56;;;;;;;24.20;17.30;;;17.80;99.90;;;;;;5134377;28;20805;-79
2023/04/20 10:51:24;;;;;;;27.33;17.67;;;17.90;99.90;;;;;;5131252;28;20436;-79
2023/04/20 10:54:06;;;;;;;24.63;17.13;;;17.70;99.90;;;;;;5128075;28;20489;-79
2023/04/20 10:56:41;;;;;;;20.00;16.83;;;16.70;99.90;;;;;;5128790;28;20433;-81
2023/04/20 10:59:09;;;;;;;21.10;15.60;;;16.00;99.90;;;;;;5114659;28;20441;-80
2023/04/20 11:01:39;;;;;;;25.23;16.83;;;15.30;99.90;;;;;;5120960;27;20472;-80
2023/04/20 11:04:11;;;;;;;21.40;16.60;;;15.10;99.90;;;;;;5128927;27;20761;-81
2023/04/20 11:06:39;;;;;;;26.23;17.83;;;15.20;99.90;;;;;;5116094;27;20441;-79
2023/04/20 11:09:21;;;;;;;27.40;18.00;;;15.10;99.90;;;;;;5116812;27;20441;-79
2023/04/20 11:12:10;;;;;;;27.63;17.77;;;15.10;99.90;;;;;;5132565;27;20439;-80
2023/04/20 11:14:49;;;;;;;26.87;18.17;;;15.20;99.90;;;;;;5127939;27;20971;-80
2023/04/20 11:17:16;;;;;;;22.57;16.80;;;15.30;99.90;;;;;;5131173;27;20429;-82
2023/04/20 11:19:43;;;;;;;22.67;18.43;;;15.50;99.90;;;;;;5137688;27;20416;-81
2023/04/20 11:22:20;;;;;;;22.30;16.00;;;15.40;99.90;;;;;;5121858;27;20410;-83
2023/04/20 11:24:46;;;;;;;24.83;16.50;;;15.20;99.90;;;;;;5125886;27;20420;-81
2023/04/20 11:27:23;;;;;;;27.50;20.60;;;14.70;99.90;;;;;;5131985;27;20464;-80
2023/04/20 11:29:57;;;;;;;25.98;19.42;;;14.40;99.90;;;;;;5131368;27;20412;-83
2023/04/20 11:32:25;;;;;;;28.93;19.00;;;14.70;99.90;;;;;;5132525;27;20230;-80
2023/04/20 11:35:01;;;;;;;22.10;16.00;;;14.90;99.90;;;;;;5134537;27;20447;-84
2023/04/20 11:37:44;;;;;;;23.73;18.60;;;15.10;99.90;;;;;;5132356;27;20904;-79
2023/04/20 11:40:13;;;;;;;24.00;17.50;;;15.00;99.90;;;;;;5131446;27;20437;-80
2023/04/20 11:42:40;;;;;;;25.60;17.40;;;15.00;99.90;;;;;;5138240;27;20921;-81
2023/04/20 11:45:10;;;;;;;21.93;16.47;;;15.30;99.90;;;;;;5121302;27;20671;-80
2023/04/20 11:47:39;;;;;;;24.77;18.87;;;15.50;99.90;;;;;;5138884;27;20669;-79
2023/04/20 11:50:09;;;;;;;27.70;19.20;;;15.80;99.90;;;;;;5131509;27;20416;-81
2023/04/20 11:52:35;;;;;;;29.10;20.07;;;15.70;99.90;;;;;;5110387;27;20462;-81
2023/04/20 11:55:02;;;;;;;21.47;17.17;;;15.70;99.90;;;;;;5138719;27;20408;-81
2023/04/20 11:57:29;;;;;;;21.80;16.57;;;15.90;99.90;;;;;;5136430;27;20412;-82
2023/04/20 11:59:56;;;;;;;25.80;18.77;;;15.80;99.90;;;;;;5135445;27;20458;-80
2023/04/20 12:02:24;;;;;;;25.27;18.40;;;15.10;99.90;;;;;;5135781;27;20659;-81
2023/04/20 12:04:52;;;;;;;24.60;18.53;;;15.10;99.90;;;;;;5123446;27;20441;-82
2023/04/20 12:07:21;;;;;;;30.27;19.40;;;15.20;99.90;;;;;;5131910;27;20429;-81
2023/04/20 12:09:48;;;;;;;26.87;19.57;;;15.10;99.90;;;;;;5131053;27;20416;-80
2023/04/20 12:12:15;;;;;;;25.43;19.03;;;15.10;99.90;;;;;;5132240;27;20483;-82
2023/04/20 12:14:42;;;;;;;23.57;17.60;;;15.30;99.90;;;;;;5123429;27;20413;-81
2023/04/20 12:17:10;;;;;;;28.30;18.20;;;15.60;99.90;;;;;;5127422;27;20441;-81
2023/04/20 12:19:37;;;;;;;20.50;16.20;;;16.00;99.90;;;;;;5132700;27;20416;-79
2023/04/20 12:22:06;;;;;;;31.23;17.80;;;16.10;99.90;;;;;;5124973;27;20444;-81
2023/04/20 12:24:33;;;;;;;25.53;18.50;;;16.20;99.90;;;;;;5134209;27;20468;-80
2023/04/20 12:27:00;;;;;;;23.87;16.97;;;16.20;99.90;;;;;;5133403;27;20490;-80
2023/04/20 12:29:31;;;;;;;23.00;16.87;;;16.10;99.90;;;;;;5131329;27;20442;-79
2023/04/20 12:31:58;;;;;;;28.00;18.60;;;16.60;99.90;;;;;;5130088;27;20409;-80
2023/04/20 12:34:25;;;;;;;29.10;15.90;;;17.00;99.90;;;;;;5129915;27;20932;-81
2023/04/20 12:36:52;;;;;;;25.90;16.30;;;17.20;99.90;;;;;;5119434;27;20437;-81
2023/04/20 12:39:19;;;;;;;24.30;16.30;;;17.50;99.90;;;;;;5126866;27;20407;-80
2023/04/20 12:41:46;;;;;;;22.87;14.60;;;17.50;99.90;;;;;;5140358;27;20593;-82